Barbara P — CQHY — position and weather

sailwx.info

Track history (hours):
 
Tides and Currents Weather Stations Pressure Air Temp Water Temp Dewpoint Dewpoint Depression Visibility Wind Speed Wind Dir Waves Ship Positions

Barbara P

Last reported at 2018-Jan-21 16:55 UTC. Time now 2018-Jan-22 00:23 UTC.
Position N 33°54' W 008°23'.

Length 139 m; draft 8.5 m.

Type: Cargo ship. MMSI: 255805600.

Date/timePositionNaut miles runAvg speedWind from/ knotsBaromVisibWave heightAir tempDewpointWater temp
2018-Jan-21 16:55N 33°54' W 008°23'9316.3
2018-Jan-21 11:12N 32°49' W 009°44'315.9
2018-Jan-21 11:00N 32°48' W 009°47'4415.9
2018-Jan-21 08:14N 32°17' W 010°24'1415.8
2018-Jan-21 07:20N 32°07' W 010°36'1116.0
2018-Jan-21 06:39N 31°59' W 010°45'316.3
2018-Jan-21 06:29N 31°57' W 010°48'816.4
2018-Jan-21 06:00N 31°52' W 010°54'1716.2
2018-Jan-21 04:58N 31°40' W 011°08'716.4
2018-Jan-21 04:31N 31°35' W 011°15'816.3
2018-Jan-21 04:01N 31°29' W 011°22'816.1
2018-Jan-21 03:31N 31°24' W 011°28'2215.8
2018-Jan-21 02:08N 31°09' W 011°47'815.7
2018-Jan-21 01:38N 31°03' W 011°53'215.6
2018-Jan-21 01:30N 31°02' W 011°55'815.6
2018-Jan-21 01:01N 30°56' W 012°01'2015.3
2018-Jan-20 23:44N 30°43' W 012°18'3115.3
2018-Jan-20 21:41N 30°21' W 012°44'315.0
2018-Jan-20 21:30N 30°19' W 012°46'13815.2
2018-Jan-20 12:25N 28°43' W 014°41'614.6
2018-Jan-20 12:00N 28°39' W 014°46'714.7
2018-Jan-20 11:31N 28°35' W 014°52'713.6
2018-Jan-20 11:00N 28°30' W 014°58'713.2
2018-Jan-20 10:31N 28°25' W 015°03'815.3
2018-Jan-20 10:01N 28°19' W 015°09'815.4
2018-Jan-20 09:30N 28°14' W 015°15'815.9
2018-Jan-20 09:00N 28°09' W 015°22'3 5.1
2018-Jan-20 08:30N 28°08' W 015°25'0 0.0
2018-Jan-20 07:54N 28°08' W 015°25'0 0.0
2018-Jan-20 07:24N 28°08' W 015°25'0 0.0
2018-Jan-20 06:54N 28°08' W 015°25'0 0.0
2018-Jan-20 06:24N 28°08' W 015°25'0 0.0
2018-Jan-20 05:51N 28°08' W 015°25'0 0.0
2018-Jan-20 05:27N 28°08' W 015°25'0 0.0
2018-Jan-20 04:57N 28°08' W 015°25'0 0.0
2018-Jan-20 04:27N 28°08' W 015°25'0 0.0
2018-Jan-20 03:57N 28°08' W 015°25'0 0.0
2018-Jan-20 03:27N 28°08' W 015°25'0 0.0
2018-Jan-20 02:57N 28°08' W 015°25'0 0.0
2018-Jan-20 02:27N 28°08' W 015°25'0 0.0
2018-Jan-20 02:00N 28°08' W 015°25'0 0.0
2018-Jan-20 01:30N 28°08' W 015°25'0 0.1
2018-Jan-20 01:00N 28°08' W 015°25'2 3.4
2018-Jan-20 00:31N 28°07' W 015°23'1 1.3
2018-Jan-20 00:01N 28°07' W 015°23'1 2.8
2018-Jan-19 23:31N 28°08' W 015°21'0 0.9
2018-Jan-19 23:00N 28°07' W 015°22'1 1.3
2018-Jan-19 22:30N 28°08' W 015°21'1 1.4
2018-Jan-19 22:00N 28°08' W 015°20'1 1.1
2018-Jan-19 21:31N 28°08' W 015°20'1 1.2
2018-Jan-19 21:00N 28°08' W 015°21'1 2.7
2018-Jan-19 20:30N 28°08' W 015°22'612.5
2018-Jan-19 20:00N 28°11' W 015°16'816.3
2018-Jan-19 19:30N 28°16' W 015°09'816.9
2018-Jan-19 19:00N 28°21' W 015°01'917.3
2018-Jan-19 18:30N 28°25' W 014°53'917.4
2018-Jan-19 18:00N 28°29' W 014°44'917.2
2018-Jan-19 17:30N 28°33' W 014°35'3017.1
2018-Jan-19 15:44N 28°46' W 014°04'1516.9
2018-Jan-19 14:52N 28°48' W 013°48'717.5
2018-Jan-19 14:27N 28°52' W 013°40'817.1
2018-Jan-19 14:00N 28°56' W 013°33'2 0.3
2018-Jan-19 06:47N 28°58' W 013°32'0 1.0
2018-Jan-19 06:27N 28°58' W 013°32'3 6.6
2018-Jan-19 06:00N 28°55' W 013°34'712.9
2018-Jan-19 05:27N 28°52' W 013°40'47 9.9
2018-Jan-19 00:44N 28°21' W 014°21'311.2
2018-Jan-19 00:30N 28°21' W 014°24'611.2
2018-Jan-19 00:00N 28°21' W 014°30'510.3
2018-Jan-18 23:30N 28°21' W 014°36'510.2
2018-Jan-18 23:00N 28°21' W 014°42'510.0
2018-Jan-18 22:30N 28°20' W 014°48'5 9.9
2018-Jan-18 22:00N 28°20' W 014°53'510.0
2018-Jan-18 21:30N 28°20' W 014°59'5 9.4
2018-Jan-18 21:00N 28°19' W 015°04'5 9.8
2018-Jan-18 20:30N 28°16' W 015°09'5 9.8
2018-Jan-18 20:00N 28°13' W 015°13'510.1
2018-Jan-18 19:30N 28°10' W 015°18'510.1
2018-Jan-18 19:00N 28°07' W 015°22'2 4.4
2018-Jan-18 18:28N 28°08' W 015°25'0 0.0
2018-Jan-18 17:58N 28°08' W 015°25'0 0.0
2018-Jan-18 17:19N 28°08' W 015°25'0 0.0
2018-Jan-18 16:49N 28°08' W 015°25'0 0.0
2018-Jan-18 16:22N 28°08' W 015°25'0 0.0
2018-Jan-18 15:52N 28°08' W 015°25'0 0.0
2018-Jan-18 15:22N 28°08' W 015°25'0 0.0
2018-Jan-18 14:52N 28°08' W 015°25'0 0.0
2018-Jan-18 14:22N 28°08' W 015°25'0 0.0
2018-Jan-18 13:52N 28°08' W 015°25'0 0.0
2018-Jan-18 13:25N 28°08' W 015°25'0 0.0
2018-Jan-18 12:55N 28°08' W 015°25'0 0.0
2018-Jan-18 12:25N 28°08' W 015°25'0 0.0
2018-Jan-18 11:55N 28°08' W 015°25'0 0.0
2018-Jan-18 11:25N 28°08' W 015°25'0 0.0
2018-Jan-18 10:58N 28°08' W 015°25'0 0.0
2018-Jan-18 10:28N 28°08' W 015°25'0 0.0
2018-Jan-18 09:58N 28°08' W 015°25'0 0.0
2018-Jan-18 09:28N 28°08' W 015°25'0 0.0
2018-Jan-18 08:58N 28°08' W 015°25'0 0.0
2018-Jan-18 08:28N 28°08' W 015°25'0 0.0
2018-Jan-18 07:58N 28°08' W 015°25'0 0.0
2018-Jan-18 07:28N 28°08' W 015°25'0 0.0
2018-Jan-18 07:00N 28°08' W 015°25'0 0.0
2018-Jan-18 06:30N 28°08' W 015°25'0 0.0
2018-Jan-18 06:00N 28°08' W 015°25'0 0.0
2018-Jan-18 05:30N 28°08' W 015°25'0 0.0
2018-Jan-18 05:00N 28°08' W 015°25'0 0.0
2018-Jan-18 04:30N 28°08' W 015°25'0 0.0
2018-Jan-18 04:00N 28°08' W 015°25'0 0.0
2018-Jan-18 03:30N 28°08' W 015°25'0 0.0
2018-Jan-18 03:00N 28°08' W 015°25'0 0.0
2018-Jan-18 02:29N 28°08' W 015°25'0 0.0
2018-Jan-18 01:59N 28°08' W 015°25'0 0.0
2018-Jan-18 01:30N 28°08' W 015°25'0 0.0
2018-Jan-18 01:00N 28°08' W 015°25'0 0.0
2018-Jan-18 00:00N 28°08' W 015°25'0 0.0
2018-Jan-17 23:53N 28°08' W 015°25'  
2018-Jan-12 14:41N 41°21' E 002°10'0 0.0
2018-Jan-12 14:29N 41°21' E 002°10'0 0.0
2018-Jan-12 13:26N 41°21' E 002°10'0 0.0
2018-Jan-12 12:53N 41°21' E 002°10'0 0.0
2018-Jan-12 12:26N 41°21' E 002°10'0 0.0
2018-Jan-12 11:53N 41°21' E 002°10'0 0.0
2018-Jan-12 11:29N 41°21' E 002°10'0 0.0
2018-Jan-12 10:59N 41°21' E 002°10'0 0.0
2018-Jan-12 10:26N 41°21' E 002°10'0 0.0
2018-Jan-12 09:56N 41°21' E 002°10'0 0.0
2018-Jan-12 09:26N 41°21' E 002°10'0 0.0
2018-Jan-12 08:59N 41°21' E 002°10'0 0.0
2018-Jan-12 08:23N 41°21' E 002°10'0 0.0
2018-Jan-12 07:59N 41°21' E 002°10'0 0.0
2018-Jan-12 07:20N 41°21' E 002°10'0 0.0
2018-Jan-12 06:59N 41°21' E 002°10'0 0.0
2018-Jan-12 06:29N 41°21' E 002°10'0 0.0
2018-Jan-12 05:59N 41°21' E 002°10'0 0.0
2018-Jan-12 05:29N 41°21' E 002°10'0 0.0
2018-Jan-12 04:59N 41°21' E 002°10'0 0.0
2018-Jan-12 04:29N 41°21' E 002°10'0 0.0
2018-Jan-12 03:59N 41°21' E 002°10'0 0.0
2018-Jan-12 03:29N 41°21' E 002°10'0 0.0
2018-Jan-12 02:59N 41°21' E 002°10'0 0.0
2018-Jan-12 02:20N 41°21' E 002°10'0 0.0
2018-Jan-12 01:59N 41°21' E 002°10'0 0.0
2018-Jan-12 01:26N 41°21' E 002°10'0 0.0
2018-Jan-12 00:59N 41°21' E 002°10'0 0.0
2018-Jan-12 00:29N 41°21' E 002°10'0 0.0
2018-Jan-11 23:59N 41°21' E 002°10'0 0.0
2018-Jan-11 23:29N 41°21' E 002°10'0 0.0
2018-Jan-11 22:59N 41°21' E 002°10'0 0.0
2018-Jan-11 22:29N 41°21' E 002°10'0 0.0
2018-Jan-11 21:59N 41°21' E 002°10'0 0.0
2018-Jan-11 21:26N 41°21' E 002°10'0 0.0
2018-Jan-11 20:44N 41°21' E 002°10'0 0.0
2018-Jan-11 20:23N 41°21' E 002°10'0 0.0
2018-Jan-11 19:56N 41°21' E 002°10'0 0.0
2018-Jan-11 18:29N 41°21' E 002°10'0 0.0
2018-Jan-11 17:59N 41°21' E 002°10'0 0.0
2018-Jan-11 17:26N 41°21' E 002°10'0 0.0
2018-Jan-11 16:56N 41°21' E 002°10'  
Track history (hours):
 
Tides and Currents Weather Stations Pressure Air Temp Water Temp Dewpoint Dewpoint Depression Visibility Wind Speed Wind Dir Waves Ship Positions

Barbara P

Last reported at 2018-Jan-21 16:55 UTC. Time now 2018-Jan-22 00:23 UTC.
Position N 33°54' W 008°23'.

Length 139 m; draft 8.5 m.

Type: Cargo ship. MMSI: 255805600.

Date/timePositionNaut miles runAvg speedWind from/ knotsBaromVisibWave heightAir tempDewpointWater temp
2018-Jan-21 16:55N 33°54' W 008°23'9316.3
2018-Jan-21 11:12N 32°49' W 009°44'315.9
2018-Jan-21 11:00N 32°48' W 009°47'4415.9
2018-Jan-21 08:14N 32°17' W 010°24'1415.8
2018-Jan-21 07:20N 32°07' W 010°36'1116.0
2018-Jan-21 06:39N 31°59' W 010°45'316.3
2018-Jan-21 06:29N 31°57' W 010°48'816.4
2018-Jan-21 06:00N 31°52' W 010°54'1716.2
2018-Jan-21 04:58N 31°40' W 011°08'716.4
2018-Jan-21 04:31N 31°35' W 011°15'816.3
2018-Jan-21 04:01N 31°29' W 011°22'816.1
2018-Jan-21 03:31N 31°24' W 011°28'2215.8
2018-Jan-21 02:08N 31°09' W 011°47'815.7
2018-Jan-21 01:38N 31°03' W 011°53'215.6
2018-Jan-21 01:30N 31°02' W 011°55'815.6
2018-Jan-21 01:01N 30°56' W 012°01'2015.3
2018-Jan-20 23:44N 30°43' W 012°18'3115.3
2018-Jan-20 21:41N 30°21' W 012°44'315.0
2018-Jan-20 21:30N 30°19' W 012°46'13815.2
2018-Jan-20 12:25N 28°43' W 014°41'614.6
2018-Jan-20 12:00N 28°39' W 014°46'714.7
2018-Jan-20 11:31N 28°35' W 014°52'713.6
2018-Jan-20 11:00N 28°30' W 014°58'713.2
2018-Jan-20 10:31N 28°25' W 015°03'815.3
2018-Jan-20 10:01N 28°19' W 015°09'815.4
2018-Jan-20 09:30N 28°14' W 015°15'815.9
2018-Jan-20 09:00N 28°09' W 015°22'3 5.1
2018-Jan-20 08:30N 28°08' W 015°25'0 0.0
2018-Jan-20 07:54N 28°08' W 015°25'0 0.0
2018-Jan-20 07:24N 28°08' W 015°25'0 0.0
2018-Jan-20 06:54N 28°08' W 015°25'0 0.0
2018-Jan-20 06:24N 28°08' W 015°25'0 0.0
2018-Jan-20 05:51N 28°08' W 015°25'0 0.0
2018-Jan-20 05:27N 28°08' W 015°25'0 0.0
2018-Jan-20 04:57N 28°08' W 015°25'0 0.0
2018-Jan-20 04:27N 28°08' W 015°25'0 0.0
2018-Jan-20 03:57N 28°08' W 015°25'0 0.0
2018-Jan-20 03:27N 28°08' W 015°25'0 0.0
2018-Jan-20 02:57N 28°08' W 015°25'0 0.0
2018-Jan-20 02:27N 28°08' W 015°25'0 0.0
2018-Jan-20 02:00N 28°08' W 015°25'0 0.0
2018-Jan-20 01:30N 28°08' W 015°25'0 0.1
2018-Jan-20 01:00N 28°08' W 015°25'2 3.4
2018-Jan-20 00:31N 28°07' W 015°23'1 1.3
2018-Jan-20 00:01N 28°07' W 015°23'1 2.8
2018-Jan-19 23:31N 28°08' W 015°21'0 0.9
2018-Jan-19 23:00N 28°07' W 015°22'1 1.3
2018-Jan-19 22:30N 28°08' W 015°21'1 1.4
2018-Jan-19 22:00N 28°08' W 015°20'1 1.1
2018-Jan-19 21:31N 28°08' W 015°20'1 1.2
2018-Jan-19 21:00N 28°08' W 015°21'1 2.7
2018-Jan-19 20:30N 28°08' W 015°22'612.5
2018-Jan-19 20:00N 28°11' W 015°16'816.3
2018-Jan-19 19:30N 28°16' W 015°09'816.9
2018-Jan-19 19:00N 28°21' W 015°01'917.3
2018-Jan-19 18:30N 28°25' W 014°53'917.4
2018-Jan-19 18:00N 28°29' W 014°44'917.2
2018-Jan-19 17:30N 28°33' W 014°35'3017.1
2018-Jan-19 15:44N 28°46' W 014°04'1516.9
2018-Jan-19 14:52N 28°48' W 013°48'717.5
2018-Jan-19 14:27N 28°52' W 013°40'817.1
2018-Jan-19 14:00N 28°56' W 013°33'2 0.3
2018-Jan-19 06:47N 28°58' W 013°32'0 1.0
2018-Jan-19 06:27N 28°58' W 013°32'3 6.6
2018-Jan-19 06:00N 28°55' W 013°34'712.9
2018-Jan-19 05:27N 28°52' W 013°40'47 9.9
2018-Jan-19 00:44N 28°21' W 014°21'311.2
2018-Jan-19 00:30N 28°21' W 014°24'611.2
2018-Jan-19 00:00N 28°21' W 014°30'510.3
2018-Jan-18 23:30N 28°21' W 014°36'510.2
2018-Jan-18 23:00N 28°21' W 014°42'510.0
2018-Jan-18 22:30N 28°20' W 014°48'5 9.9
2018-Jan-18 22:00N 28°20' W 014°53'510.0
2018-Jan-18 21:30N 28°20' W 014°59'5 9.4
2018-Jan-18 21:00N 28°19' W 015°04'5 9.8
2018-Jan-18 20:30N 28°16' W 015°09'5 9.8
2018-Jan-18 20:00N 28°13' W 015°13'510.1
2018-Jan-18 19:30N 28°10' W 015°18'510.1
2018-Jan-18 19:00N 28°07' W 015°22'2 4.4
2018-Jan-18 18:28N 28°08' W 015°25'0 0.0
2018-Jan-18 17:58N 28°08' W 015°25'0 0.0
2018-Jan-18 17:19N 28°08' W 015°25'0 0.0
2018-Jan-18 16:49N 28°08' W 015°25'0 0.0
2018-Jan-18 16:22N 28°08' W 015°25'0 0.0
2018-Jan-18 15:52N 28°08' W 015°25'0 0.0
2018-Jan-18 15:22N 28°08' W 015°25'0 0.0
2018-Jan-18 14:52N 28°08' W 015°25'0 0.0
2018-Jan-18 14:22N 28°08' W 015°25'0 0.0
2018-Jan-18 13:52N 28°08' W 015°25'0 0.0
2018-Jan-18 13:25N 28°08' W 015°25'0 0.0
2018-Jan-18 12:55N 28°08' W 015°25'0 0.0
2018-Jan-18 12:25N 28°08' W 015°25'0 0.0
2018-Jan-18 11:55N 28°08' W 015°25'0 0.0
2018-Jan-18 11:25N 28°08' W 015°25'0 0.0
2018-Jan-18 10:58N 28°08' W 015°25'0 0.0
2018-Jan-18 10:28N 28°08' W 015°25'0 0.0
2018-Jan-18 09:58N 28°08' W 015°25'0 0.0
2018-Jan-18 09:28N 28°08' W 015°25'0 0.0
2018-Jan-18 08:58N 28°08' W 015°25'0 0.0
2018-Jan-18 08:28N 28°08' W 015°25'0 0.0
2018-Jan-18 07:58N 28°08' W 015°25'0 0.0
2018-Jan-18 07:28N 28°08' W 015°25'0 0.0
2018-Jan-18 07:00N 28°08' W 015°25'0 0.0
2018-Jan-18 06:30N 28°08' W 015°25'0 0.0
2018-Jan-18 06:00N 28°08' W 015°25'0 0.0
2018-Jan-18 05:30N 28°08' W 015°25'0 0.0
2018-Jan-18 05:00N 28°08' W 015°25'0 0.0
2018-Jan-18 04:30N 28°08' W 015°25'0 0.0
2018-Jan-18 04:00N 28°08' W 015°25'0 0.0
2018-Jan-18 03:30N 28°08' W 015°25'0 0.0
2018-Jan-18 03:00N 28°08' W 015°25'0 0.0
2018-Jan-18 02:29N 28°08' W 015°25'0 0.0
2018-Jan-18 01:59N 28°08' W 015°25'0 0.0
2018-Jan-18 01:30N 28°08' W 015°25'0 0.0
2018-Jan-18 01:00N 28°08' W 015°25'0 0.0
2018-Jan-18 00:00N 28°08' W 015°25'0 0.0
2018-Jan-17 23:53N 28°08' W 015°25'  
2018-Jan-12 14:41N 41°21' E 002°10'0 0.0
2018-Jan-12 14:29N 41°21' E 002°10'0 0.0
2018-Jan-12 13:26N 41°21' E 002°10'0 0.0
2018-Jan-12 12:53N 41°21' E 002°10'0 0.0
2018-Jan-12 12:26N 41°21' E 002°10'0 0.0
2018-Jan-12 11:53N 41°21' E 002°10'0 0.0
2018-Jan-12 11:29N 41°21' E 002°10'0 0.0
2018-Jan-12 10:59N 41°21' E 002°10'0 0.0
2018-Jan-12 10:26N 41°21' E 002°10'0 0.0
2018-Jan-12 09:56N 41°21' E 002°10'0 0.0
2018-Jan-12 09:26N 41°21' E 002°10'0 0.0
2018-Jan-12 08:59N 41°21' E 002°10'0 0.0
2018-Jan-12 08:23N 41°21' E 002°10'0 0.0
2018-Jan-12 07:59N 41°21' E 002°10'0 0.0
2018-Jan-12 07:20N 41°21' E 002°10'0 0.0
2018-Jan-12 06:59N 41°21' E 002°10'0 0.0
2018-Jan-12 06:29N 41°21' E 002°10'0 0.0
2018-Jan-12 05:59N 41°21' E 002°10'0 0.0
2018-Jan-12 05:29N 41°21' E 002°10'0 0.0
2018-Jan-12 04:59N 41°21' E 002°10'0 0.0
2018-Jan-12 04:29N 41°21' E 002°10'0 0.0
2018-Jan-12 03:59N 41°21' E 002°10'0 0.0
2018-Jan-12 03:29N 41°21' E 002°10'0 0.0
2018-Jan-12 02:59N 41°21' E 002°10'0 0.0
2018-Jan-12 02:20N 41°21' E 002°10'0 0.0
2018-Jan-12 01:59N 41°21' E 002°10'0 0.0
2018-Jan-12 01:26N 41°21' E 002°10'0 0.0
2018-Jan-12 00:59N 41°21' E 002°10'0 0.0
2018-Jan-12 00:29N 41°21' E 002°10'0 0.0
2018-Jan-11 23:59N 41°21' E 002°10'0 0.0
2018-Jan-11 23:29N 41°21' E 002°10'0 0.0
2018-Jan-11 22:59N 41°21' E 002°10'0 0.0
2018-Jan-11 22:29N 41°21' E 002°10'0 0.0
2018-Jan-11 21:59N 41°21' E 002°10'0 0.0
2018-Jan-11 21:26N 41°21' E 002°10'0 0.0
2018-Jan-11 20:44N 41°21' E 002°10'0 0.0
2018-Jan-11 20:23N 41°21' E 002°10'0 0.0
2018-Jan-11 19:56N 41°21' E 002°10'0 0.0
2018-Jan-11 18:29N 41°21' E 002°10'0 0.0
2018-Jan-11 17:59N 41°21' E 002°10'0 0.0
2018-Jan-11 17:26N 41°21' E 002°10'0 0.0
2018-Jan-11 16:56N 41°21' E 002°10'  

Dump ship's entire track history